sensor_id;sensor_type;location;lat;lon;timestamp;temperature;humidity
12885;DHT22;6510;51.362;7.370;2022-08-18T00:00:29;18.00;99.90
12885;DHT22;6510;51.362;7.370;2022-08-18T00:03:00;17.90;99.90
12885;DHT22;6510;51.362;7.370;2022-08-18T00:05:26;17.90;99.90
12885;DHT22;6510;51.362;7.370;2022-08-18T00:07:51;17.80;99.90
12885;DHT22;6510;51.362;7.370;2022-08-18T00:10:17;17.80;99.90
12885;DHT22;6510;51.362;7.370;2022-08-18T00:12:43;17.90;99.90
12885;DHT22;6510;51.362;7.370;2022-08-18T00:15:12;18.00;99.90
12885;DHT22;6510;51.362;7.370;2022-08-18T00:17:38;18.00;99.90
12885;DHT22;6510;51.362;7.370;2022-08-18T00:20:06;17.90;99.90
12885;DHT22;6510;51.362;7.370;2022-08-18T00:22:33;17.80;99.90
12885;DHT22;6510;51.362;7.370;2022-08-18T00:24:59;17.80;99.90
12885;DHT22;6510;51.362;7.370;2022-08-18T00:27:28;17.80;99.90
12885;DHT22;6510;51.362;7.370;2022-08-18T00:29:55;17.80;99.90
12885;DHT22;6510;51.362;7.370;2022-08-18T00:32:33;17.80;99.90
12885;DHT22;6510;51.362;7.370;2022-08-18T00:35:05;17.90;99.90
12885;DHT22;6510;51.362;7.370;2022-08-18T00:37:31;17.80;99.90
12885;DHT22;6510;51.362;7.370;2022-08-18T00:39:57;17.80;99.90
12885;DHT22;6510;51.362;7.370;2022-08-18T00:42:26;17.80;99.90
12885;DHT22;6510;51.362;7.370;2022-08-18T00:44:52;17.90;99.90
12885;DHT22;6510;51.362;7.370;2022-08-18T00:47:19;17.90;99.90
12885;DHT22;6510;51.362;7.370;2022-08-18T00:49:45;17.90;99.90
12885;DHT22;6510;51.362;7.370;2022-08-18T00:52:14;17.80;99.90
12885;DHT22;6510;51.362;7.370;2022-08-18T00:54:42;17.80;99.90
12885;DHT22;6510;51.362;7.370;2022-08-18T00:57:10;17.80;99.90
12885;DHT22;6510;51.362;7.370;2022-08-18T00:59:53;17.80;99.90
12885;DHT22;6510;51.362;7.370;2022-08-18T01:02:32;17.80;99.90
12885;DHT22;6510;51.362;7.370;2022-08-18T01:05:05;17.70;99.90
12885;DHT22;6510;51.362;7.370;2022-08-18T01:07:40;17.70;99.90
12885;DHT22;6510;51.362;7.370;2022-08-18T01:10:20;18.00;99.90
12885;DHT22;6510;51.362;7.370;2022-08-18T01:12:52;18.00;99.90
12885;DHT22;6510;51.362;7.370;2022-08-18T01:15:20;17.90;99.90
12885;DHT22;6510;51.362;7.370;2022-08-18T01:17:46;18.00;99.90
12885;DHT22;6510;51.362;7.370;2022-08-18T01:23:44;18.00;99.90
12885;DHT22;6510;51.362;7.370;2022-08-18T01:26:12;18.00;99.90
12885;DHT22;6510;51.362;7.370;2022-08-18T01:28:42;18.00;99.90
12885;DHT22;6510;51.362;7.370;2022-08-18T01:31:09;18.00;99.90
12885;DHT22;6510;51.362;7.370;2022-08-18T01:33:39;17.90;99.90
12885;DHT22;6510;51.362;7.370;2022-08-18T01:36:12;17.70;99.90
12885;DHT22;6510;51.362;7.370;2022-08-18T01:38:39;17.70;99.90
12885;DHT22;6510;51.362;7.370;2022-08-18T01:41:05;17.70;99.90
12885;DHT22;6510;51.362;7.370;2022-08-18T01:43:32;17.60;99.90
12885;DHT22;6510;51.362;7.370;2022-08-18T01:45:59;17.60;99.90
12885;DHT22;6510;51.362;7.370;2022-08-18T01:48:27;17.60;99.90
12885;DHT22;6510;51.362;7.370;2022-08-18T01:50:52;17.60;99.90
12885;DHT22;6510;51.362;7.370;2022-08-18T01:53:21;17.60;99.90
12885;DHT22;6510;51.362;7.370;2022-08-18T01:55:47;17.40;99.90
12885;DHT22;6510;51.362;7.370;2022-08-18T01:58:13;17.30;99.90
12885;DHT22;6510;51.362;7.370;2022-08-18T02:00:39;17.20;99.90
12885;DHT22;6510;51.362;7.370;2022-08-18T02:03:08;17.10;99.90
12885;DHT22;6510;51.362;7.370;2022-08-18T02:05:40;17.00;99.90
12885;DHT22;6510;51.362;7.370;2022-08-18T02:08:07;16.90;99.90
12885;DHT22;6510;51.362;7.370;2022-08-18T02:10:33;16.80;99.90
12885;DHT22;6510;51.362;7.370;2022-08-18T02:12:58;16.70;99.90
12885;DHT22;6510;51.362;7.370;2022-08-18T02:15:24;16.70;99.90
12885;DHT22;6510;51.362;7.370;2022-08-18T02:17:53;16.50;99.90
12885;DHT22;6510;51.362;7.370;2022-08-18T02:20:19;16.40;99.90
12885;DHT22;6510;51.362;7.370;2022-08-18T02:22:46;16.50;99.90
12885;DHT22;6510;51.362;7.370;2022-08-18T02:25:12;16.70;99.90
12885;DHT22;6510;51.362;7.370;2022-08-18T02:27:40;16.70;99.90
12885;DHT22;6510;51.362;7.370;2022-08-18T02:30:09;16.80;99.90
12885;DHT22;6510;51.362;7.370;2022-08-18T02:32:36;16.70;99.90
12885;DHT22;6510;51.362;7.370;2022-08-18T02:35:03;16.70;99.90
12885;DHT22;6510;51.362;7.370;2022-08-18T02:37:29;16.70;99.90
12885;DHT22;6510;51.362;7.370;2022-08-18T02:39:55;16.60;99.90
12885;DHT22;6510;51.362;7.370;2022-08-18T02:42:21;16.60;99.90
12885;DHT22;6510;51.362;7.370;2022-08-18T02:44:47;16.60;99.90
12885;DHT22;6510;51.362;7.370;2022-08-18T02:47:13;16.70;99.90
12885;DHT22;6510;51.362;7.370;2022-08-18T02:49:39;16.70;99.90
12885;DHT22;6510;51.362;7.370;2022-08-18T02:52:05;16.70;99.90
12885;DHT22;6510;51.362;7.370;2022-08-18T02:54:31;16.70;99.90
12885;DHT22;6510;51.362;7.370;2022-08-18T02:56:57;16.70;99.90
12885;DHT22;6510;51.362;7.370;2022-08-18T02:59:25;16.70;99.90
12885;DHT22;6510;51.362;7.370;2022-08-18T03:01:54;16.70;99.90
12885;DHT22;6510;51.362;7.370;2022-08-18T03:04:26;16.60;99.90
12885;DHT22;6510;51.362;7.370;2022-08-18T03:06:58;16.60;99.90
12885;DHT22;6510;51.362;7.370;2022-08-18T03:09:24;16.70;99.90
12885;DHT22;6510;51.362;7.370;2022-08-18T03:11:50;16.70;99.90
12885;DHT22;6510;51.362;7.370;2022-08-18T03:14:18;16.70;99.90
12885;DHT22;6510;51.362;7.370;2022-08-18T03:16:45;16.80;99.90
12885;DHT22;6510;51.362;7.370;2022-08-18T03:19:13;16.80;99.90
12885;DHT22;6510;51.362;7.370;2022-08-18T03:21:42;16.90;99.90
12885;DHT22;6510;51.362;7.370;2022-08-18T03:24:07;16.90;99.90
12885;DHT22;6510;51.362;7.370;2022-08-18T03:26:33;16.90;99.90
12885;DHT22;6510;51.362;7.370;2022-08-18T03:29:00;17.00;99.90
12885;DHT22;6510;51.362;7.370;2022-08-18T03:31:28;17.10;99.90
12885;DHT22;6510;51.362;7.370;2022-08-18T03:33:55;17.00;99.90
12885;DHT22;6510;51.362;7.370;2022-08-18T03:36:25;17.00;99.90
12885;DHT22;6510;51.362;7.370;2022-08-18T03:38:52;17.00;99.90
12885;DHT22;6510;51.362;7.370;2022-08-18T03:41:21;17.10;99.90
12885;DHT22;6510;51.362;7.370;2022-08-18T03:43:48;17.10;99.90
12885;DHT22;6510;51.362;7.370;2022-08-18T03:46:16;17.10;99.90
12885;DHT22;6510;51.362;7.370;2022-08-18T03:48:42;17.10;99.90
12885;DHT22;6510;51.362;7.370;2022-08-18T03:51:21;17.10;99.90
12885;DHT22;6510;51.362;7.370;2022-08-18T03:53:50;17.20;99.90
12885;DHT22;6510;51.362;7.370;2022-08-18T03:56:23;17.10;99.90
12885;DHT22;6510;51.362;7.370;2022-08-18T03:58:52;17.10;99.90
12885;DHT22;6510;51.362;7.370;2022-08-18T04:01:23;17.20;99.90
12885;DHT22;6510;51.362;7.370;2022-08-18T04:03:54;17.20;99.90
12885;DHT22;6510;51.362;7.370;2022-08-18T04:06:24;17.10;99.90
12885;DHT22;6510;51.362;7.370;2022-08-18T04:08:52;17.10;99.90
12885;DHT22;6510;51.362;7.370;2022-08-18T04:11:18;17.10;99.90
12885;DHT22;6510;51.362;7.370;2022-08-18T04:13:50;17.10;99.90
12885;DHT22;6510;51.362;7.370;2022-08-18T04:16:16;17.00;99.90
12885;DHT22;6510;51.362;7.370;2022-08-18T04:18:44;17.10;99.90
12885;DHT22;6510;51.362;7.370;2022-08-18T04:21:14;17.10;99.90
12885;DHT22;6510;51.362;7.370;2022-08-18T04:23:43;17.10;99.90
12885;DHT22;6510;51.362;7.370;2022-08-18T04:26:11;17.20;99.90
12885;DHT22;6510;51.362;7.370;2022-08-18T04:28:42;17.20;99.90
12885;DHT22;6510;51.362;7.370;2022-08-18T04:31:11;17.20;99.90
12885;DHT22;6510;51.362;7.370;2022-08-18T04:33:46;17.30;99.90
12885;DHT22;6510;51.362;7.370;2022-08-18T04:36:15;17.30;99.90
12885;DHT22;6510;51.362;7.370;2022-08-18T04:38:47;17.30;99.90
12885;DHT22;6510;51.362;7.370;2022-08-18T04:41:15;17.30;99.90
12885;DHT22;6510;51.362;7.370;2022-08-18T04:43:41;17.30;99.90
12885;DHT22;6510;51.362;7.370;2022-08-18T04:46:08;17.30;99.90
12885;DHT22;6510;51.362;7.370;2022-08-18T04:48:36;17.30;99.90
12885;DHT22;6510;51.362;7.370;2022-08-18T04:51:15;17.20;99.90
12885;DHT22;6510;51.362;7.370;2022-08-18T04:53:42;17.20;99.90
12885;DHT22;6510;51.362;7.370;2022-08-18T04:56:26;17.20;99.90
12885;DHT22;6510;51.362;7.370;2022-08-18T05:01:37;17.10;99.90
12885;DHT22;6510;51.362;7.370;2022-08-18T05:04:04;17.20;99.90
12885;DHT22;6510;51.362;7.370;2022-08-18T05:06:30;17.20;99.90
12885;DHT22;6510;51.362;7.370;2022-08-18T05:09:02;17.20;99.90
12885;DHT22;6510;51.362;7.370;2022-08-18T05:11:29;17.20;99.90
12885;DHT22;6510;51.362;7.370;2022-08-18T05:13:59;17.30;99.90
12885;DHT22;6510;51.362;7.370;2022-08-18T05:16:26;17.30;99.90
12885;DHT22;6510;51.362;7.370;2022-08-18T05:18:52;17.40;99.90
12885;DHT22;6510;51.362;7.370;2022-08-18T05:21:20;17.40;99.90
12885;DHT22;6510;51.362;7.370;2022-08-18T05:23:48;17.40;99.90
12885;DHT22;6510;51.362;7.370;2022-08-18T05:26:16;17.40;99.90
12885;DHT22;6510;51.362;7.370;2022-08-18T05:28:43;17.40;99.90
12885;DHT22;6510;51.362;7.370;2022-08-18T05:31:13;17.40;99.90
12885;DHT22;6510;51.362;7.370;2022-08-18T05:33:39;17.40;99.90
12885;DHT22;6510;51.362;7.370;2022-08-18T05:38:58;17.40;99.90
12885;DHT22;6510;51.362;7.370;2022-08-18T05:41:35;17.50;99.90
12885;DHT22;6510;51.362;7.370;2022-08-18T05:44:01;17.50;99.90
12885;DHT22;6510;51.362;7.370;2022-08-18T05:46:52;17.60;99.90
12885;DHT22;6510;51.362;7.370;2022-08-18T05:49:21;17.40;99.90
12885;DHT22;6510;51.362;7.370;2022-08-18T05:52:02;17.20;99.90
12885;DHT22;6510;51.362;7.370;2022-08-18T05:54:46;17.20;99.90
12885;DHT22;6510;51.362;7.370;2022-08-18T05:57:50;17.20;99.90
12885;DHT22;6510;51.362;7.370;2022-08-18T06:00:18;17.20;99.90
12885;DHT22;6510;51.362;7.370;2022-08-18T06:03:11;17.40;99.90
12885;DHT22;6510;51.362;7.370;2022-08-18T06:05:46;17.10;99.90
12885;DHT22;6510;51.362;7.370;2022-08-18T06:08:14;17.20;99.90
12885;DHT22;6510;51.362;7.370;2022-08-18T06:10:45;17.40;99.90
12885;DHT22;6510;51.362;7.370;2022-08-18T06:13:11;17.40;99.90
12885;DHT22;6510;51.362;7.370;2022-08-18T06:16:04;17.20;99.90
12885;DHT22;6510;51.362;7.370;2022-08-18T06:32:01;17.30;99.90
12885;DHT22;6510;51.362;7.370;2022-08-18T06:37:24;17.30;99.90
12885;DHT22;6510;51.362;7.370;2022-08-18T06:39:51;17.30;99.90
12885;DHT22;6510;51.362;7.370;2022-08-18T06:42:23;17.20;99.90
12885;DHT22;6510;51.362;7.370;2022-08-18T06:44:59;17.30;99.90
12885;DHT22;6510;51.362;7.370;2022-08-18T06:52:52;17.60;99.90
12885;DHT22;6510;51.362;7.370;2022-08-18T07:00:43;17.60;99.90
12885;DHT22;6510;51.362;7.370;2022-08-18T07:03:19;17.70;99.90
12885;DHT22;6510;51.362;7.370;2022-08-18T07:08:33;17.90;99.90
12885;DHT22;6510;51.362;7.370;2022-08-18T07:11:32;17.90;99.90
12885;DHT22;6510;51.362;7.370;2022-08-18T07:14:14;18.10;99.90
12885;DHT22;6510;51.362;7.370;2022-08-18T07:16:45;18.20;99.90
12885;DHT22;6510;51.362;7.370;2022-08-18T07:19:19;18.40;99.90
12885;DHT22;6510;51.362;7.370;2022-08-18T07:22:00;18.30;99.90
12885;DHT22;6510;51.362;7.370;2022-08-18T07:24:29;18.50;99.90
12885;DHT22;6510;51.362;7.370;2022-08-18T07:27:18;18.30;99.90
12885;DHT22;6510;51.362;7.370;2022-08-18T07:33:12;18.30;99.90
12885;DHT22;6510;51.362;7.370;2022-08-18T07:35:49;18.50;99.90
12885;DHT22;6510;51.362;7.370;2022-08-18T07:38:37;18.40;99.90
12885;DHT22;6510;51.362;7.370;2022-08-18T07:41:15;18.50;99.90
12885;DHT22;6510;51.362;7.370;2022-08-18T07:46:53;18.50;99.90
12885;DHT22;6510;51.362;7.370;2022-08-18T07:49:22;18.50;99.90
12885;DHT22;6510;51.362;7.370;2022-08-18T07:52:21;18.60;99.90
12885;DHT22;6510;51.362;7.370;2022-08-18T07:54:58;18.50;99.90
12885;DHT22;6510;51.362;7.370;2022-08-18T07:57:53;18.70;99.90
12885;DHT22;6510;51.362;7.370;2022-08-18T08:00:31;18.50;99.90
12885;DHT22;6510;51.362;7.370;2022-08-18T08:08:57;18.60;99.90
12885;DHT22;6510;51.362;7.370;2022-08-18T08:14:44;18.40;99.90
12885;DHT22;6510;51.362;7.370;2022-08-18T08:17:24;18.40;99.90
12885;DHT22;6510;51.362;7.370;2022-08-18T08:31:34;18.90;99.90
12885;DHT22;6510;51.362;7.370;2022-08-18T08:37:06;19.30;99.90
12885;DHT22;6510;51.362;7.370;2022-08-18T08:39:53;19.50;99.90
12885;DHT22;6510;51.362;7.370;2022-08-18T08:42:30;19.70;99.90
12885;DHT22;6510;51.362;7.370;2022-08-18T08:45:08;19.80;99.90
12885;DHT22;6510;51.362;7.370;2022-08-18T08:50:16;19.50;99.90
12885;DHT22;6510;51.362;7.370;2022-08-18T08:55:22;19.40;99.90
12885;DHT22;6510;51.362;7.370;2022-08-18T08:58:10;19.80;99.90
12885;DHT22;6510;51.362;7.370;2022-08-18T09:00:38;19.80;99.90
12885;DHT22;6510;51.362;7.370;2022-08-18T09:04:02;20.10;99.90
12885;DHT22;6510;51.362;7.370;2022-08-18T09:06:37;19.80;99.90
12885;DHT22;6510;51.362;7.370;2022-08-18T09:22:54;20.80;99.90
12885;DHT22;6510;51.362;7.370;2022-08-18T09:28:18;20.00;99.90
12885;DHT22;6510;51.362;7.370;2022-08-18T09:33:23;20.30;99.90
12885;DHT22;6510;51.362;7.370;2022-08-18T09:39:15;21.30;99.90
12885;DHT22;6510;51.362;7.370;2022-08-18T09:42:16;21.80;99.90
12885;DHT22;6510;51.362;7.370;2022-08-18T09:49:47;21.80;99.90
12885;DHT22;6510;51.362;7.370;2022-08-18T09:57:43;22.10;99.90
12885;DHT22;6510;51.362;7.370;2022-08-18T10:07:49;21.60;99.90
12885;DHT22;6510;51.362;7.370;2022-08-18T10:15:50;22.70;99.90
12885;DHT22;6510;51.362;7.370;2022-08-18T10:29:07;22.80;99.90
12885;DHT22;6510;51.362;7.370;2022-08-18T10:37:18;22.80;99.90
12885;DHT22;6510;51.362;7.370;2022-08-18T10:40:12;22.90;99.90
12885;DHT22;6510;51.362;7.370;2022-08-18T10:42:52;23.10;99.90
12885;DHT22;6510;51.362;7.370;2022-08-18T10:45:26;23.20;99.90
12885;DHT22;6510;51.362;7.370;2022-08-18T10:50:38;23.70;99.90
12885;DHT22;6510;51.362;7.370;2022-08-18T10:58:40;23.70;99.90
12885;DHT22;6510;51.362;7.370;2022-08-18T11:04:35;22.90;99.90
12885;DHT22;6510;51.362;7.370;2022-08-18T11:07:20;22.70;99.90
12885;DHT22;6510;51.362;7.370;2022-08-18T11:09:51;22.90;99.90
12885;DHT22;6510;51.362;7.370;2022-08-18T11:20:31;22.60;99.90
12885;DHT22;6510;51.362;7.370;2022-08-18T11:23:00;22.40;99.90
12885;DHT22;6510;51.362;7.370;2022-08-18T11:25:36;22.80;99.90
12885;DHT22;6510;51.362;7.370;2022-08-18T11:28:16;23.00;99.90
12885;DHT22;6510;51.362;7.370;2022-08-18T11:30:43;22.90;99.90
12885;DHT22;6510;51.362;7.370;2022-08-18T11:33:14;22.90;99.90
12885;DHT22;6510;51.362;7.370;2022-08-18T11:35:47;23.10;99.90
12885;DHT22;6510;51.362;7.370;2022-08-18T11:38:14;23.20;99.90
12885;DHT22;6510;51.362;7.370;2022-08-18T11:40:42;22.80;99.90
12885;DHT22;6510;51.362;7.370;2022-08-18T11:53:53;23.60;99.90
12885;DHT22;6510;51.362;7.370;2022-08-18T11:58:53;23.70;99.90
12885;DHT22;6510;51.362;7.370;2022-08-18T12:01:39;23.50;99.90
12885;DHT22;6510;51.362;7.370;2022-08-18T12:04:09;23.10;99.90
12885;DHT22;6510;51.362;7.370;2022-08-18T12:07:02;23.40;99.90
12885;DHT22;6510;51.362;7.370;2022-08-18T12:09:50;23.60;99.90
12885;DHT22;6510;51.362;7.370;2022-08-18T12:12:31;24.00;99.90
12885;DHT22;6510;51.362;7.370;2022-08-18T12:17:39;24.10;99.90
12885;DHT22;6510;51.362;7.370;2022-08-18T12:20:07;24.20;99.90
12885;DHT22;6510;51.362;7.370;2022-08-18T12:22:37;23.90;99.90
12885;DHT22;6510;51.362;7.370;2022-08-18T12:25:07;23.60;99.90
12885;DHT22;6510;51.362;7.370;2022-08-18T12:27:33;24.30;99.90
12885;DHT22;6510;51.362;7.370;2022-08-18T12:32:45;24.70;99.90
12885;DHT22;6510;51.362;7.370;2022-08-18T12:35:13;24.60;99.90
12885;DHT22;6510;51.362;7.370;2022-08-18T12:37:42;24.80;99.90
12885;DHT22;6510;51.362;7.370;2022-08-18T12:40:08;24.50;99.90
12885;DHT22;6510;51.362;7.370;2022-08-18T12:42:34;24.10;99.90
12885;DHT22;6510;51.362;7.370;2022-08-18T12:45:00;23.90;99.90
12885;DHT22;6510;51.362;7.370;2022-08-18T12:47:26;24.00;99.90
12885;DHT22;6510;51.362;7.370;2022-08-18T12:49:52;24.30;99.90
12885;DHT22;6510;51.362;7.370;2022-08-18T12:52:19;24.50;99.90
12885;DHT22;6510;51.362;7.370;2022-08-18T12:54:46;24.90;99.90
12885;DHT22;6510;51.362;7.370;2022-08-18T12:57:24;25.00;99.90
12885;DHT22;6510;51.362;7.370;2022-08-18T12:59:50;25.30;99.90
12885;DHT22;6510;51.362;7.370;2022-08-18T13:02:16;25.20;99.90
12885;DHT22;6510;51.362;7.370;2022-08-18T13:04:42;24.90;99.90
12885;DHT22;6510;51.362;7.370;2022-08-18T13:07:10;24.70;99.90
12885;DHT22;6510;51.362;7.370;2022-08-18T13:09:38;24.50;99.90
12885;DHT22;6510;51.362;7.370;2022-08-18T13:12:04;25.40;99.90
12885;DHT22;6510;51.362;7.370;2022-08-18T13:14:31;25.30;99.90
12885;DHT22;6510;51.362;7.370;2022-08-18T13:16:57;25.70;99.90
12885;DHT22;6510;51.362;7.370;2022-08-18T13:19:22;25.50;99.90
12885;DHT22;6510;51.362;7.370;2022-08-18T13:21:48;25.40;99.90
12885;DHT22;6510;51.362;7.370;2022-08-18T13:24:14;25.50;99.90
12885;DHT22;6510;51.362;7.370;2022-08-18T13:26:44;25.40;99.90
12885;DHT22;6510;51.362;7.370;2022-08-18T13:29:26;25.40;99.90
12885;DHT22;6510;51.362;7.370;2022-08-18T13:31:52;25.50;99.90
12885;DHT22;6510;51.362;7.370;2022-08-18T13:34:22;25.40;99.90
12885;DHT22;6510;51.362;7.370;2022-08-18T13:36:48;25.30;99.90
12885;DHT22;6510;51.362;7.370;2022-08-18T13:39:23;24.90;99.90
12885;DHT22;6510;51.362;7.370;2022-08-18T13:41:50;24.90;99.90
12885;DHT22;6510;51.362;7.370;2022-08-18T13:44:17;24.90;99.90
12885;DHT22;6510;51.362;7.370;2022-08-18T13:46:44;24.70;99.90
12885;DHT22;6510;51.362;7.370;2022-08-18T13:49:22;24.90;99.90
12885;DHT22;6510;51.362;7.370;2022-08-18T13:51:50;25.20;99.90
12885;DHT22;6510;51.362;7.370;2022-08-18T13:54:24;25.00;99.90
12885;DHT22;6510;51.362;7.370;2022-08-18T13:56:50;24.90;99.90
12885;DHT22;6510;51.362;7.370;2022-08-18T13:59:18;24.80;99.90
12885;DHT22;6510;51.362;7.370;2022-08-18T14:01:46;25.00;99.90
12885;DHT22;6510;51.362;7.370;2022-08-18T14:04:13;24.90;99.90
12885;DHT22;6510;51.362;7.370;2022-08-18T14:06:39;25.20;99.90
12885;DHT22;6510;51.362;7.370;2022-08-18T14:09:06;25.00;99.90
12885;DHT22;6510;51.362;7.370;2022-08-18T14:11:33;25.30;99.90
12885;DHT22;6510;51.362;7.370;2022-08-18T14:13:59;25.20;99.90
12885;DHT22;6510;51.362;7.370;2022-08-18T14:16:26;25.20;99.90
12885;DHT22;6510;51.362;7.370;2022-08-18T14:18:52;24.90;99.90
12885;DHT22;6510;51.362;7.370;2022-08-18T14:21:41;24.80;99.90
12885;DHT22;6510;51.362;7.370;2022-08-18T14:24:26;24.80;99.90
12885;DHT22;6510;51.362;7.370;2022-08-18T14:27:10;25.00;99.90
12885;DHT22;6510;51.362;7.370;2022-08-18T14:29:36;24.90;99.90
12885;DHT22;6510;51.362;7.370;2022-08-18T14:32:03;24.90;99.90
12885;DHT22;6510;51.362;7.370;2022-08-18T14:34:28;24.90;99.90
12885;DHT22;6510;51.362;7.370;2022-08-18T14:36:54;24.90;99.90
12885;DHT22;6510;51.362;7.370;2022-08-18T14:39:20;25.20;99.90
12885;DHT22;6510;51.362;7.370;2022-08-18T14:41:45;25.20;99.90
12885;DHT22;6510;51.362;7.370;2022-08-18T14:44:12;25.00;99.90
12885;DHT22;6510;51.362;7.370;2022-08-18T14:46:40;24.70;99.90
12885;DHT22;6510;51.362;7.370;2022-08-18T14:49:06;24.80;99.90
12885;DHT22;6510;51.362;7.370;2022-08-18T14:51:32;24.90;99.90
12885;DHT22;6510;51.362;7.370;2022-08-18T14:53:58;24.90;99.90
12885;DHT22;6510;51.362;7.370;2022-08-18T14:56:30;25.00;99.90
12885;DHT22;6510;51.362;7.370;2022-08-18T14:58:55;24.90;99.90
12885;DHT22;6510;51.362;7.370;2022-08-18T15:01:22;24.30;99.90
12885;DHT22;6510;51.362;7.370;2022-08-18T15:03:48;24.40;99.90
12885;DHT22;6510;51.362;7.370;2022-08-18T15:06:27;24.60;99.90
12885;DHT22;6510;51.362;7.370;2022-08-18T15:08:54;24.70;99.90
12885;DHT22;6510;51.362;7.370;2022-08-18T15:11:19;24.60;99.90
12885;DHT22;6510;51.362;7.370;2022-08-18T15:13:45;25.10;99.90
12885;DHT22;6510;51.362;7.370;2022-08-18T15:16:12;25.20;99.90
12885;DHT22;6510;51.362;7.370;2022-08-18T15:18:39;25.00;99.90
12885;DHT22;6510;51.362;7.370;2022-08-18T15:21:05;25.10;99.90
12885;DHT22;6510;51.362;7.370;2022-08-18T15:23:49;25.40;99.90
12885;DHT22;6510;51.362;7.370;2022-08-18T15:26:33;25.90;99.90
12885;DHT22;6510;51.362;7.370;2022-08-18T15:29:01;25.80;99.90
12885;DHT22;6510;51.362;7.370;2022-08-18T15:31:26;25.40;99.90
12885;DHT22;6510;51.362;7.370;2022-08-18T15:33:52;25.30;99.90
12885;DHT22;6510;51.362;7.370;2022-08-18T15:36:19;25.40;99.90
12885;DHT22;6510;51.362;7.370;2022-08-18T15:38:46;25.50;99.90
12885;DHT22;6510;51.362;7.370;2022-08-18T15:43:59;24.40;99.90
12885;DHT22;6510;51.362;7.370;2022-08-18T15:46:25;24.10;99.90
12885;DHT22;6510;51.362;7.370;2022-08-18T15:48:51;24.50;99.90
12885;DHT22;6510;51.362;7.370;2022-08-18T15:51:17;24.80;99.90
12885;DHT22;6510;51.362;7.370;2022-08-18T15:53:42;25.00;99.90
12885;DHT22;6510;51.362;7.370;2022-08-18T15:56:15;24.90;99.90
12885;DHT22;6510;51.362;7.370;2022-08-18T15:58:41;24.70;99.90
12885;DHT22;6510;51.362;7.370;2022-08-18T16:01:09;24.60;99.90
12885;DHT22;6510;51.362;7.370;2022-08-18T16:03:35;24.70;99.90
12885;DHT22;6510;51.362;7.370;2022-08-18T16:06:03;24.80;99.90
12885;DHT22;6510;51.362;7.370;2022-08-18T16:08:29;24.80;99.90
12885;DHT22;6510;51.362;7.370;2022-08-18T16:10:55;24.80;99.90
12885;DHT22;6510;51.362;7.370;2022-08-18T16:13:22;24.90;99.90
12885;DHT22;6510;51.362;7.370;2022-08-18T16:15:49;24.80;99.90
12885;DHT22;6510;51.362;7.370;2022-08-18T16:18:16;24.70;99.90
12885;DHT22;6510;51.362;7.370;2022-08-18T16:20:43;24.70;99.90
12885;DHT22;6510;51.362;7.370;2022-08-18T16:23:09;24.60;99.90
12885;DHT22;6510;51.362;7.370;2022-08-18T16:25:37;24.50;99.90
12885;DHT22;6510;51.362;7.370;2022-08-18T16:28:04;24.60;99.90
12885;DHT22;6510;51.362;7.370;2022-08-18T16:30:30;24.60;99.90
12885;DHT22;6510;51.362;7.370;2022-08-18T16:33:03;24.40;99.90
12885;DHT22;6510;51.362;7.370;2022-08-18T16:35:30;24.30;99.90
12885;DHT22;6510;51.362;7.370;2022-08-18T16:38:04;24.30;99.90
12885;DHT22;6510;51.362;7.370;2022-08-18T16:40:32;24.30;99.90
12885;DHT22;6510;51.362;7.370;2022-08-18T16:42:58;24.30;99.90
12885;DHT22;6510;51.362;7.370;2022-08-18T16:45:25;24.10;99.90
12885;DHT22;6510;51.362;7.370;2022-08-18T16:47:53;24.20;99.90
12885;DHT22;6510;51.362;7.370;2022-08-18T16:50:18;24.00;99.90
12885;DHT22;6510;51.362;7.370;2022-08-18T16:52:44;24.00;99.90
12885;DHT22;6510;51.362;7.370;2022-08-18T16:55:11;24.10;99.90
12885;DHT22;6510;51.362;7.370;2022-08-18T16:57:41;24.00;99.90
12885;DHT22;6510;51.362;7.370;2022-08-18T17:00:27;24.00;99.90
12885;DHT22;6510;51.362;7.370;2022-08-18T17:03:12;23.80;99.90
12885;DHT22;6510;51.362;7.370;2022-08-18T17:08:28;23.80;99.90
12885;DHT22;6510;51.362;7.370;2022-08-18T17:11:03;23.70;99.90
12885;DHT22;6510;51.362;7.370;2022-08-18T17:13:29;23.60;99.90
12885;DHT22;6510;51.362;7.370;2022-08-18T17:15:56;23.50;99.90
12885;DHT22;6510;51.362;7.370;2022-08-18T17:18:22;23.60;99.90
12885;DHT22;6510;51.362;7.370;2022-08-18T17:20:49;23.70;99.90
12885;DHT22;6510;51.362;7.370;2022-08-18T17:23:15;23.50;99.90
12885;DHT22;6510;51.362;7.370;2022-08-18T17:25:41;23.50;99.90
12885;DHT22;6510;51.362;7.370;2022-08-18T17:28:07;23.40;99.90
12885;DHT22;6510;51.362;7.370;2022-08-18T17:30:36;23.40;99.90
12885;DHT22;6510;51.362;7.370;2022-08-18T17:33:13;23.30;99.90
12885;DHT22;6510;51.362;7.370;2022-08-18T17:35:42;23.30;99.90
12885;DHT22;6510;51.362;7.370;2022-08-18T17:38:31;23.20;99.90
12885;DHT22;6510;51.362;7.370;2022-08-18T17:41:02;23.10;99.90
12885;DHT22;6510;51.362;7.370;2022-08-18T17:43:33;23.00;99.90
12885;DHT22;6510;51.362;7.370;2022-08-18T17:46:16;22.90;99.90
12885;DHT22;6510;51.362;7.370;2022-08-18T17:48:47;22.90;99.90
12885;DHT22;6510;51.362;7.370;2022-08-18T17:51:22;22.80;99.90
12885;DHT22;6510;51.362;7.370;2022-08-18T17:54:03;22.80;99.90
12885;DHT22;6510;51.362;7.370;2022-08-18T17:57:20;22.80;99.90
12885;DHT22;6510;51.362;7.370;2022-08-18T18:02:32;22.70;99.90
12885;DHT22;6510;51.362;7.370;2022-08-18T18:05:07;22.60;99.90
12885;DHT22;6510;51.362;7.370;2022-08-18T18:10:43;22.50;99.90
12885;DHT22;6510;51.362;7.370;2022-08-18T18:13:12;22.40;99.90
12885;DHT22;6510;51.362;7.370;2022-08-18T18:15:42;22.40;99.90
12885;DHT22;6510;51.362;7.370;2022-08-18T18:21:05;22.30;99.90
12885;DHT22;6510;51.362;7.370;2022-08-18T18:23:35;22.20;99.90
12885;DHT22;6510;51.362;7.370;2022-08-18T18:26:29;22.10;99.90
12885;DHT22;6510;51.362;7.370;2022-08-18T18:31:38;22.00;99.90
12885;DHT22;6510;51.362;7.370;2022-08-18T18:34:15;21.90;99.90
12885;DHT22;6510;51.362;7.370;2022-08-18T18:36:46;21.90;99.90
12885;DHT22;6510;51.362;7.370;2022-08-18T18:39:35;21.90;99.90
12885;DHT22;6510;51.362;7.370;2022-08-18T18:42:17;21.80;99.90
12885;DHT22;6510;51.362;7.370;2022-08-18T18:44:55;21.80;99.90
12885;DHT22;6510;51.362;7.370;2022-08-18T18:47:30;21.70;99.90
12885;DHT22;6510;51.362;7.370;2022-08-18T18:52:59;21.50;99.90
12885;DHT22;6510;51.362;7.370;2022-08-18T18:55:32;21.50;99.90
12885;DHT22;6510;51.362;7.370;2022-08-18T19:00:59;21.30;99.90
12885;DHT22;6510;51.362;7.370;2022-08-18T19:03:39;21.20;99.90
12885;DHT22;6510;51.362;7.370;2022-08-18T19:14:38;21.10;99.90
12885;DHT22;6510;51.362;7.370;2022-08-18T19:17:21;21.00;99.90
12885;DHT22;6510;51.362;7.370;2022-08-18T19:20:12;21.00;99.90
12885;DHT22;6510;51.362;7.370;2022-08-18T19:22:45;21.00;99.90
12885;DHT22;6510;51.362;7.370;2022-08-18T19:25:21;20.90;99.90
12885;DHT22;6510;51.362;7.370;2022-08-18T19:30:18;20.80;99.90
12885;DHT22;6510;51.362;7.370;2022-08-18T19:32:52;20.80;99.90
12885;DHT22;6510;51.362;7.370;2022-08-18T19:36:09;20.80;99.90
12885;DHT22;6510;51.362;7.370;2022-08-18T19:38:44;20.70;99.90